createdAt,value
2018-05-02T00:01:53.664Z,99.90
2018-05-02T00:04:21.116Z,99.90
2018-05-02T00:06:48.596Z,99.90
2018-05-02T00:09:16.065Z,99.90
2018-05-02T00:11:43.545Z,99.90
2018-05-02T00:14:11.783Z,99.90
2018-05-02T00:16:39.249Z,99.90
2018-05-02T00:19:06.705Z,99.90
2018-05-02T00:21:34.199Z,99.90
2018-05-02T00:24:02.427Z,99.90
2018-05-02T00:26:29.915Z,99.90
2018-05-02T00:28:57.379Z,99.90
2018-05-02T00:31:25.625Z,99.90
2018-05-02T00:33:53.092Z,99.90
2018-05-02T00:36:20.561Z,99.90
2018-05-02T00:38:48.913Z,99.90
2018-05-02T00:41:16.379Z,99.90
2018-05-02T00:43:43.867Z,99.90
2018-05-02T00:46:12.121Z,99.90
2018-05-02T00:48:52.331Z,99.90
2018-05-02T00:51:19.792Z,99.90
2018-05-02T00:53:47.432Z,99.90
2018-05-02T00:56:14.886Z,99.90
2018-05-02T00:58:42.362Z,99.90
2018-05-02T01:01:09.817Z,99.90
2018-05-02T01:03:37.289Z,99.90
2018-05-02T01:06:04.790Z,99.90
2018-05-02T01:08:32.255Z,99.90
2018-05-02T01:11:00.472Z,99.90
2018-05-02T01:13:28.029Z,99.90
2018-05-02T01:15:55.487Z,99.90
2018-05-02T01:18:23.005Z,99.90
2018-05-02T01:20:51.234Z,99.90
2018-05-02T01:23:18.696Z,99.90
2018-05-02T01:25:46.160Z,99.90
2018-05-02T01:28:13.633Z,99.90
2018-05-02T01:30:42.616Z,99.90
2018-05-02T01:33:10.080Z,99.90
2018-05-02T01:35:37.540Z,99.90
2018-05-02T01:38:05.030Z,99.90
2018-05-02T01:40:32.495Z,99.90
2018-05-02T01:42:59.967Z,99.90
2018-05-02T01:45:27.437Z,99.90
2018-05-02T01:47:54.899Z,99.90
2018-05-02T01:50:22.377Z,99.90
2018-05-02T01:52:49.989Z,99.90
2018-05-02T01:55:17.627Z,99.90
2018-05-02T01:57:45.862Z,99.90
2018-05-02T02:00:13.338Z,99.90
2018-05-02T02:02:40.791Z,99.90
2018-05-02T02:05:08.261Z,99.90
2018-05-02T02:07:36.487Z,99.90
2018-05-02T02:12:38.567Z,99.90
2018-05-02T02:15:06.039Z,99.90
2018-05-02T02:17:33.500Z,99.90
2018-05-02T02:20:00.966Z,99.90
2018-05-02T02:22:28.420Z,99.90
2018-05-02T02:24:55.909Z,99.90
2018-05-02T02:27:24.142Z,99.90
2018-05-02T02:29:51.957Z,99.90
2018-05-02T02:32:19.448Z,99.90
2018-05-02T02:34:46.915Z,99.90
2018-05-02T02:37:14.396Z,99.90
2018-05-02T02:39:41.863Z,99.90
2018-05-02T02:42:09.520Z,99.90
2018-05-02T02:44:36.978Z,99.90
2018-05-02T02:47:04.453Z,99.90
2018-05-02T02:49:32.673Z,99.90
2018-05-02T02:52:00.139Z,99.90
2018-05-02T02:54:27.599Z,99.90
2018-05-02T02:56:55.085Z,99.90
2018-05-02T02:59:22.550Z,99.90
2018-05-02T03:01:50.830Z,99.90
2018-05-02T03:04:19.057Z,99.90
2018-05-02T03:06:46.531Z,99.90
2018-05-02T03:09:13.987Z,99.90
2018-05-02T03:11:41.448Z,99.90
2018-05-02T03:14:08.927Z,99.90
2018-05-02T03:16:37.143Z,99.90
2018-05-02T03:19:04.619Z,99.90
2018-05-02T03:21:32.079Z,99.90
2018-05-02T03:23:59.552Z,99.90
2018-05-02T03:26:27.019Z,99.90
2018-05-02T03:28:54.772Z,99.90
2018-05-02T03:31:22.237Z,99.90
2018-05-02T03:33:49.725Z,99.90
2018-05-02T03:36:17.179Z,99.90
2018-05-02T03:38:44.687Z,99.90
2018-05-02T03:41:12.175Z,99.90
2018-05-02T03:43:40.432Z,99.90
2018-05-02T03:46:07.908Z,99.90
2018-05-02T03:48:36.135Z,99.90
2018-05-02T03:51:03.603Z,99.90
2018-05-02T03:53:31.065Z,99.90
2018-05-02T03:55:58.540Z,99.90
2018-05-02T03:58:25.991Z,99.90
2018-05-02T04:01:05.391Z,99.90
2018-05-02T04:03:44.933Z,99.90
2018-05-02T04:06:20.078Z,99.90
2018-05-02T04:08:47.568Z,99.90
2018-05-02T04:11:15.033Z,99.90
2018-05-02T04:13:42.497Z,99.90
2018-05-02T04:16:09.995Z,99.90
2018-05-02T04:18:37.464Z,99.90
2018-05-02T04:21:04.934Z,99.90
2018-05-02T04:23:32.383Z,99.90
2018-05-02T04:25:59.862Z,99.90
2018-05-02T04:28:27.327Z,99.90
2018-05-02T04:30:54.794Z,99.90
2018-05-02T04:33:22.268Z,99.90
2018-05-02T04:35:50.493Z,99.90
2018-05-02T04:38:17.971Z,99.90
2018-05-02T04:40:45.440Z,99.90
2018-05-02T04:43:13.685Z,99.90
2018-05-02T04:45:41.143Z,99.90
2018-05-02T04:48:08.618Z,99.90
2018-05-02T04:50:36.084Z,99.90
2018-05-02T04:53:04.319Z,99.90
2018-05-02T04:55:31.760Z,99.90
2018-05-02T04:57:59.331Z,99.90
2018-05-02T05:00:26.779Z,99.90
2018-05-02T05:02:54.273Z,99.90
2018-05-02T05:05:21.748Z,99.90
2018-05-02T05:07:49.199Z,99.90
2018-05-02T05:10:16.906Z,99.90
2018-05-02T05:12:44.357Z,99.90
2018-05-02T05:15:11.859Z,99.90
2018-05-02T05:17:39.306Z,99.90
2018-05-02T05:20:06.784Z,99.90
2018-05-02T05:22:34.243Z,99.90
2018-05-02T05:25:01.718Z,99.90
2018-05-02T05:27:29.950Z,99.90
2018-05-02T05:29:57.424Z,99.90
2018-05-02T05:32:24.895Z,99.90
2018-05-02T05:34:52.380Z,99.90
2018-05-02T05:37:19.866Z,99.90
2018-05-02T05:39:47.340Z,99.90
2018-05-02T05:42:14.813Z,99.90
2018-05-02T05:44:42.284Z,99.90
2018-05-02T05:47:10.545Z,99.90
2018-05-02T05:49:38.020Z,99.90
2018-05-02T05:52:06.262Z,99.90
2018-05-02T05:54:33.749Z,99.90
2018-05-02T05:57:02.812Z,99.90
2018-05-02T05:59:30.276Z,99.90
2018-05-02T06:01:57.751Z,99.90
2018-05-02T06:04:25.360Z,99.90
2018-05-02T06:06:52.840Z,99.90
2018-05-02T06:09:20.379Z,99.90
2018-05-02T06:11:48.768Z,99.90
2018-05-02T06:14:16.245Z,99.90
2018-05-02T06:16:43.772Z,99.90
2018-05-02T06:19:11.236Z,99.90
2018-05-02T06:21:38.695Z,99.90
2018-05-02T06:24:06.176Z,99.90
2018-05-02T06:26:33.662Z,99.90
2018-05-02T06:29:01.898Z,99.90
2018-05-02T06:31:29.367Z,99.90
2018-05-02T06:33:56.847Z,99.90
2018-05-02T06:38:58.192Z,99.90
2018-05-02T06:41:25.656Z,99.90
2018-05-02T06:43:53.247Z,99.90
2018-05-02T06:46:21.493Z,99.90
2018-05-02T06:48:48.957Z,99.90
2018-05-02T06:51:17.191Z,99.90
2018-05-02T06:53:44.658Z,99.90
2018-05-02T06:56:12.128Z,99.90
2018-05-02T06:58:39.600Z,99.90
2018-05-02T07:01:07.065Z,99.90
2018-05-02T07:03:34.548Z,99.90
2018-05-02T07:06:02.015Z,99.90
2018-05-02T07:08:29.496Z,99.90
2018-05-02T07:10:56.947Z,99.90
2018-05-02T07:13:24.435Z,99.90
2018-05-02T07:15:52.660Z,99.90
2018-05-02T07:18:20.131Z,99.90
2018-05-02T07:20:47.619Z,99.90
2018-05-02T07:23:15.099Z,99.90
2018-05-02T07:25:42.548Z,99.90
2018-05-02T07:28:10.020Z,99.90
2018-05-02T07:30:38.279Z,99.90
2018-05-02T07:33:06.290Z,99.90
2018-05-02T07:35:33.685Z,99.90
2018-05-02T07:38:01.260Z,99.90
2018-05-02T07:40:28.730Z,99.90
2018-05-02T07:42:56.972Z,99.40
2018-05-02T07:45:24.492Z,99.40
2018-05-02T07:47:52.025Z,99.20
2018-05-02T07:50:20.277Z,99.00
2018-05-02T07:52:47.763Z,99.00
2018-05-02T07:55:15.995Z,98.60
2018-05-02T07:57:43.453Z,98.60
2018-05-02T08:00:10.951Z,98.10
2018-05-02T08:02:39.181Z,97.00
2018-05-02T08:05:07.155Z,97.00
2018-05-02T08:07:34.631Z,97.00
2018-05-02T08:10:02.954Z,97.30
2018-05-02T08:12:30.345Z,97.00
2018-05-02T08:14:57.841Z,96.30
2018-05-02T08:17:26.071Z,95.80
2018-05-02T08:19:53.564Z,95.80
2018-05-02T08:22:21.787Z,95.80
2018-05-02T08:24:49.260Z,95.80
2018-05-02T08:27:16.743Z,95.40
2018-05-02T08:29:44.199Z,95.80
2018-05-02T08:32:11.684Z,94.40
2018-05-02T08:34:39.968Z,93.70
2018-05-02T08:37:08.627Z,94.10
2018-05-02T08:39:36.855Z,94.00
2018-05-02T08:42:04.349Z,93.90
2018-05-02T08:44:31.811Z,93.80
2018-05-02T08:46:59.284Z,93.10
2018-05-02T08:49:27.514Z,93.00
2018-05-02T08:51:55.752Z,92.90
2018-05-02T08:54:23.250Z,92.80
2018-05-02T08:56:50.724Z,93.30
2018-05-02T08:59:18.977Z,93.40
2018-05-02T09:01:46.469Z,93.50
2018-05-02T09:04:13.915Z,93.20
2018-05-02T09:06:42.148Z,93.00
2018-05-02T09:09:09.760Z,93.00
2018-05-02T09:11:37.226Z,92.00
2018-05-02T09:14:05.482Z,92.90
2018-05-02T09:16:32.945Z,92.90
2018-05-02T09:19:01.253Z,93.40
2018-05-02T09:21:28.747Z,93.60
2018-05-02T09:23:56.231Z,94.00
2018-05-02T09:26:23.706Z,93.00
2018-05-02T09:28:51.941Z,92.90
2018-05-02T09:31:19.400Z,92.90
2018-05-02T09:33:46.893Z,92.30
2018-05-02T09:36:14.347Z,93.00
2018-05-02T09:38:41.813Z,92.60
2018-05-02T09:41:10.488Z,92.90
2018-05-02T09:43:38.759Z,92.40
2018-05-02T09:46:06.986Z,92.20
2018-05-02T09:48:34.485Z,92.20
2018-05-02T09:51:03.459Z,92.20
2018-05-02T09:53:30.931Z,92.20
2018-05-02T09:55:58.404Z,91.90
2018-05-02T09:58:25.874Z,91.90
2018-05-02T10:00:53.517Z,92.30
2018-05-02T10:03:21.745Z,91.80
2018-05-02T10:05:49.203Z,91.80
2018-05-02T10:08:16.768Z,91.10
2018-05-02T10:10:44.274Z,90.20
2018-05-02T10:13:11.745Z,85.30
2018-05-02T10:15:39.976Z,85.70
2018-05-02T10:18:07.456Z,85.70
2018-05-02T10:20:36.449Z,85.90
2018-05-02T10:23:03.913Z,85.90
2018-05-02T10:25:32.414Z,85.60
2018-05-02T10:27:59.866Z,85.60
2018-05-02T10:30:27.348Z,86.40
2018-05-02T10:32:54.816Z,86.40
2018-05-02T10:35:22.550Z,86.40
2018-05-02T10:37:50.044Z,86.00
2018-05-02T10:40:17.626Z,86.90
2018-05-02T10:42:45.266Z,83.40
2018-05-02T10:45:12.732Z,82.60
2018-05-02T10:47:40.206Z,82.00
2018-05-02T10:50:07.675Z,82.90
2018-05-02T10:52:35.943Z,82.60
2018-05-02T10:55:03.417Z,82.80
2018-05-02T10:57:30.913Z,82.30
2018-05-02T10:59:58.384Z,79.20
2018-05-02T11:02:25.871Z,79.10
2018-05-02T11:04:54.838Z,79.50
2018-05-02T11:07:22.424Z,79.50
2018-05-02T11:09:49.903Z,80.20
2018-05-02T11:12:18.322Z,78.10
2018-05-02T11:14:45.779Z,78.10
2018-05-02T11:17:13.479Z,74.40
2018-05-02T11:19:40.937Z,77.10
2018-05-02T11:22:08.428Z,77.60
2018-05-02T11:24:35.916Z,76.80
2018-05-02T11:27:03.527Z,77.90
2018-05-02T11:29:31.766Z,80.90
2018-05-02T11:31:59.234Z,80.80
2018-05-02T11:34:26.751Z,77.10
2018-05-02T11:36:54.216Z,77.10
2018-05-02T11:39:21.748Z,77.40
2018-05-02T11:41:49.966Z,75.30
2018-05-02T11:44:17.553Z,75.10
2018-05-02T11:46:45.788Z,75.20
2018-05-02T11:49:13.280Z,75.20
2018-05-02T11:51:41.507Z,77.50
2018-05-02T11:54:08.973Z,77.50
2018-05-02T11:56:36.447Z,70.70
2018-05-02T11:59:03.915Z,71.40
2018-05-02T12:01:31.421Z,71.20
2018-05-02T12:03:58.873Z,71.20
2018-05-02T12:06:26.354Z,71.70
2018-05-02T12:08:53.819Z,72.00
2018-05-02T12:11:21.300Z,73.00
2018-05-02T12:13:48.757Z,70.00
2018-05-02T12:16:16.232Z,70.20
2018-05-02T12:18:43.704Z,68.70
2018-05-02T12:21:11.936Z,68.40
2018-05-02T12:23:39.394Z,68.40
2018-05-02T12:26:06.876Z,68.80
2018-05-02T12:28:34.331Z,69.30
2018-05-02T12:31:01.814Z,68.10
2018-05-02T12:33:30.046Z,69.80
2018-05-02T12:35:57.539Z,69.80
2018-05-02T12:38:25.771Z,69.60
2018-05-02T12:40:53.272Z,69.60
2018-05-02T12:43:21.877Z,67.80
2018-05-02T12:45:49.338Z,67.80
2018-05-02T12:48:16.830Z,70.80
2018-05-02T12:50:44.286Z,70.20
2018-05-02T12:53:12.047Z,68.00
2018-05-02T12:55:39.532Z,68.40
2018-05-02T12:58:07.015Z,66.60
2018-05-02T13:00:34.467Z,65.50
2018-05-02T13:03:01.957Z,64.60
2018-05-02T13:05:29.414Z,65.70
2018-05-02T13:07:56.885Z,65.60
2018-05-02T13:10:24.347Z,64.10
2018-05-02T13:12:51.981Z,65.00
2018-05-02T13:15:19.469Z,64.70
2018-05-02T13:17:46.959Z,64.60
2018-05-02T13:20:15.199Z,66.60
2018-05-02T13:22:42.668Z,66.60
2018-05-02T13:25:10.936Z,63.50
2018-05-02T13:27:38.400Z,63.50
2018-05-02T13:30:05.892Z,63.10
2018-05-02T13:32:34.128Z,64.20
2018-05-02T13:35:01.599Z,64.20
2018-05-02T13:37:29.065Z,64.20
2018-05-02T13:39:56.551Z,64.30
2018-05-02T13:42:24.488Z,64.20
2018-05-02T13:44:51.949Z,65.40
2018-05-02T13:47:19.408Z,63.40
2018-05-02T13:49:47.690Z,62.20
2018-05-02T13:52:15.935Z,61.20
2018-05-02T13:54:43.411Z,61.10
2018-05-02T13:57:10.876Z,61.70
2018-05-02T13:59:39.112Z,64.10
2018-05-02T14:02:06.613Z,64.10
2018-05-02T14:04:34.854Z,61.10
2018-05-02T14:07:02.392Z,61.10
2018-05-02T14:09:29.929Z,61.40
2018-05-02T14:11:58.165Z,61.50
2018-05-02T14:14:25.633Z,61.50
2018-05-02T14:16:53.901Z,60.70
2018-05-02T14:19:21.384Z,60.80
2018-05-02T14:21:49.707Z,62.10
2018-05-02T14:24:17.186Z,62.10
2018-05-02T14:26:45.440Z,61.30
2018-05-02T14:29:12.924Z,61.10
2018-05-02T14:31:40.408Z,62.30
2018-05-02T14:34:08.651Z,62.70
2018-05-02T14:36:36.123Z,62.70
2018-05-02T14:39:04.589Z,61.50
2018-05-02T14:41:32.081Z,61.50
2018-05-02T14:43:59.567Z,60.50
2018-05-02T14:46:27.347Z,60.60
2018-05-02T14:48:54.816Z,60.30
2018-05-02T14:51:22.911Z,61.80
2018-05-02T14:53:51.151Z,59.90
2018-05-02T14:56:18.628Z,59.90
2018-05-02T14:58:46.108Z,60.10
2018-05-02T15:01:13.599Z,60.30
2018-05-02T15:03:41.101Z,60.90
2018-05-02T15:06:08.558Z,60.40
2018-05-02T15:08:36.067Z,60.70
2018-05-02T15:11:03.571Z,59.70
2018-05-02T15:13:31.047Z,60.10
2018-05-02T15:15:59.292Z,61.00
2018-05-02T15:18:27.540Z,59.50
2018-05-02T15:20:55.093Z,59.50
2018-05-02T15:23:22.555Z,59.70
2018-05-02T15:25:50.017Z,59.60
2018-05-02T15:28:17.495Z,60.00
2018-05-02T15:30:46.492Z,60.40
2018-05-02T15:33:14.020Z,60.40
2018-05-02T15:35:41.493Z,60.90
2018-05-02T15:38:08.978Z,61.80
2018-05-02T15:40:36.591Z,60.70
2018-05-02T15:43:04.059Z,60.40
2018-05-02T15:45:31.990Z,60.20
2018-05-02T15:47:59.472Z,61.10
2018-05-02T15:50:26.949Z,61.20
2018-05-02T15:52:54.442Z,61.10
2018-05-02T15:55:21.947Z,59.70
2018-05-02T15:57:49.425Z,61.30
2018-05-02T16:00:16.930Z,61.80
2018-05-02T16:02:45.341Z,61.80
2018-05-02T16:05:12.809Z,61.80
2018-05-02T16:07:40.295Z,60.70
2018-05-02T16:10:09.269Z,62.00
2018-05-02T16:12:36.757Z,61.90
2018-05-02T16:15:05.025Z,62.10
2018-05-02T16:17:33.311Z,61.70
2018-05-02T16:20:00.835Z,61.70
2018-05-02T16:22:28.469Z,62.10
2018-05-02T16:24:55.951Z,61.00
2018-05-02T16:27:23.458Z,62.60
2018-05-02T16:29:51.510Z,62.30
2018-05-02T16:32:19.215Z,61.20
2018-05-02T16:34:46.708Z,62.00
2018-05-02T16:37:14.184Z,61.40
2018-05-02T16:39:41.655Z,62.10
2018-05-02T16:42:09.903Z,61.10
2018-05-02T16:44:37.403Z,61.00
2018-05-02T16:47:04.892Z,61.00
2018-05-02T16:49:32.544Z,61.60
2018-05-02T16:52:00.007Z,61.50
2018-05-02T16:54:27.523Z,61.80
2018-05-02T16:56:55.778Z,62.50
2018-05-02T16:59:24.149Z,62.60
2018-05-02T17:01:51.672Z,62.60
2018-05-02T17:04:19.197Z,63.00
2018-05-02T17:06:46.641Z,62.20
2018-05-02T17:09:14.138Z,62.10
2018-05-02T17:11:41.620Z,62.90
2018-05-02T17:14:09.094Z,62.80
2018-05-02T17:16:36.582Z,61.90
2018-05-02T17:19:04.833Z,61.50
2018-05-02T17:21:32.607Z,61.40
2018-05-02T17:24:00.851Z,62.20
2018-05-02T17:26:28.333Z,62.20
2018-05-02T17:28:56.675Z,61.80
2018-05-02T17:31:24.158Z,61.60
2018-05-02T17:33:51.647Z,62.00
2018-05-02T17:36:19.879Z,62.70
2018-05-02T17:38:47.392Z,62.70
2018-05-02T17:41:15.701Z,63.20
2018-05-02T17:43:43.161Z,63.20
2018-05-02T17:46:10.650Z,63.30
2018-05-02T17:48:38.138Z,63.40
2018-05-02T17:51:06.378Z,63.90
2018-05-02T17:53:35.683Z,63.70
2018-05-02T17:56:03.933Z,63.70
2018-05-02T17:58:31.424Z,63.70
2018-05-02T18:00:59.678Z,64.30
2018-05-02T18:03:27.155Z,64.10
2018-05-02T18:05:55.399Z,63.70
2018-05-02T18:08:22.862Z,63.20
2018-05-02T18:10:50.393Z,63.90
2018-05-02T18:13:17.853Z,63.60
2018-05-02T18:15:45.450Z,64.30
2018-05-02T18:18:13.689Z,64.90
2018-05-02T18:20:41.166Z,64.90
2018-05-02T18:23:08.635Z,64.00
2018-05-02T18:25:38.112Z,64.00
2018-05-02T18:28:05.645Z,64.00
2018-05-02T18:30:33.882Z,63.80
2018-05-02T18:33:01.400Z,63.80
2018-05-02T18:35:28.886Z,64.30
2018-05-02T18:37:56.377Z,63.80
2018-05-02T18:40:24.626Z,64.10
2018-05-02T18:42:53.624Z,64.40
2018-05-02T18:45:22.630Z,64.50
2018-05-02T18:47:50.102Z,64.60
2018-05-02T18:50:18.350Z,64.70
2018-05-02T18:52:45.860Z,64.70
2018-05-02T18:55:13.363Z,64.90
2018-05-02T18:57:40.870Z,65.20
2018-05-02T19:00:08.371Z,65.00
2018-05-02T19:02:35.837Z,65.40
2018-05-02T19:05:04.092Z,66.00
2018-05-02T19:07:31.577Z,66.00
2018-05-02T19:09:59.867Z,66.40
2018-05-02T19:12:27.318Z,66.40
2018-05-02T19:14:55.552Z,66.90
2018-05-02T19:17:23.024Z,66.80
2018-05-02T19:19:56.298Z,67.30
2018-05-02T19:22:23.764Z,67.80
2018-05-02T19:24:56.960Z,68.10
2018-05-02T19:27:24.791Z,68.60
2018-05-02T19:29:52.305Z,68.70
2018-05-02T19:32:25.616Z,68.90
2018-05-02T19:34:53.867Z,69.90
2018-05-02T19:37:21.408Z,69.80
2018-05-02T19:39:54.792Z,70.40
2018-05-02T19:42:27.952Z,70.30
2018-05-02T19:44:55.458Z,70.30
2018-05-02T19:47:22.947Z,70.10
2018-05-02T19:49:51.187Z,71.10
2018-05-02T19:52:24.376Z,71.10
2018-05-02T19:54:51.859Z,71.70
2018-05-02T19:57:19.375Z,72.40
2018-05-02T19:59:46.860Z,73.90
2018-05-02T20:02:20.159Z,74.60
2018-05-02T20:04:47.644Z,75.40
2018-05-02T20:07:21.505Z,76.60
2018-05-02T20:09:54.718Z,76.60
2018-05-02T20:12:27.993Z,76.50
2018-05-02T20:14:55.500Z,77.00
2018-05-02T20:17:23.755Z,77.80
2018-05-02T20:19:52.003Z,77.80
2018-05-02T20:22:19.482Z,77.80
2018-05-02T20:24:47.729Z,78.80
2018-05-02T20:27:15.200Z,78.80
2018-05-02T20:29:42.770Z,79.00
2018-05-02T20:32:11.159Z,79.90
2018-05-02T20:34:38.625Z,79.90
2018-05-02T20:37:06.868Z,80.10
2018-05-02T20:39:34.343Z,80.10
2018-05-02T20:42:02.674Z,80.30
2018-05-02T20:44:30.073Z,80.30
2018-05-02T20:46:58.375Z,80.50
2018-05-02T20:49:26.698Z,80.60
2018-05-02T20:51:54.127Z,80.50
2018-05-02T20:54:21.598Z,80.40
2018-05-02T20:56:49.115Z,80.50
2018-05-02T20:59:17.468Z,81.10
2018-05-02T21:01:46.676Z,81.30
2018-05-02T21:04:14.388Z,81.30
2018-05-02T21:06:41.899Z,81.50
2018-05-02T21:09:09.393Z,81.40
2018-05-02T21:11:36.916Z,82.30
2018-05-02T21:14:04.391Z,82.00
2018-05-02T21:16:31.877Z,81.70
2018-05-02T21:18:59.360Z,81.80
2018-05-02T21:21:26.835Z,83.10
2018-05-02T21:23:55.823Z,84.20
2018-05-02T21:26:23.293Z,84.10
2018-05-02T21:28:51.530Z,84.90
2018-05-02T21:31:19.086Z,84.80
2018-05-02T21:33:46.613Z,85.80
2018-05-02T21:36:14.093Z,85.60
2018-05-02T21:38:41.562Z,86.10
2018-05-02T21:41:09.047Z,86.40
2018-05-02T21:43:38.043Z,86.40
2018-05-02T21:46:06.276Z,87.20
2018-05-02T21:48:33.769Z,87.30
2018-05-02T21:51:01.239Z,86.00
2018-05-02T21:53:28.709Z,85.70
2018-05-02T21:55:57.056Z,87.00
2018-05-02T21:58:24.527Z,87.00
2018-05-02T22:00:52.775Z,87.70
2018-05-02T22:03:20.248Z,87.80
2018-05-02T22:05:48.846Z,88.80
2018-05-02T22:08:16.315Z,88.80
2018-05-02T22:10:44.632Z,89.60
2018-05-02T22:13:12.093Z,89.60
2018-05-02T22:15:39.687Z,89.70
2018-05-02T22:18:08.708Z,90.50
2018-05-02T22:20:36.957Z,91.10
2018-05-02T22:23:05.255Z,92.60
2018-05-02T22:25:33.505Z,93.50
2018-05-02T22:28:01.756Z,94.40
2018-05-02T22:30:29.287Z,94.40
2018-05-02T22:32:56.801Z,95.30
2018-05-02T22:35:24.316Z,95.70
2018-05-02T22:37:51.965Z,96.20
2018-05-02T22:40:19.426Z,96.80
2018-05-02T22:42:46.924Z,96.40
2018-05-02T22:45:14.388Z,95.20
2018-05-02T22:47:42.645Z,94.10
2018-05-02T22:50:10.115Z,94.10
2018-05-02T22:52:37.604Z,93.60
2018-05-02T22:55:05.903Z,93.60
2018-05-02T22:57:33.367Z,93.50
2018-05-02T23:00:00.863Z,93.80
2018-05-02T23:02:28.377Z,94.10
2018-05-02T23:04:55.847Z,94.70
2018-05-02T23:07:23.424Z,95.20
2018-05-02T23:09:51.166Z,95.30
2018-05-02T23:12:18.644Z,95.40
2018-05-02T23:14:46.140Z,95.20
2018-05-02T23:17:14.408Z,95.80
2018-05-02T23:19:41.868Z,95.80
2018-05-02T23:22:10.109Z,95.70
2018-05-02T23:24:37.598Z,95.60
2018-05-02T23:27:05.053Z,95.60
2018-05-02T23:29:32.528Z,95.80
2018-05-02T23:32:00.771Z,95.40
2018-05-02T23:34:29.055Z,94.40
2018-05-02T23:36:57.297Z,93.80
2018-05-02T23:39:24.768Z,93.80
2018-05-02T23:41:52.629Z,94.60
2018-05-02T23:44:20.115Z,94.00
2018-05-02T23:46:48.352Z,94.40
2018-05-02T23:49:15.818Z,94.40
2018-05-02T23:51:43.285Z,94.40
2018-05-02T23:54:10.769Z,94.80
2018-05-02T23:56:38.238Z,95.10
2018-05-02T23:59:06.499Z,95.50
